^^
Saratoga-Weather Station Historical Data
Daily Summary for February 11, 2020 Units:  English    Metric   Both
Daily Weekly Monthly Yearly Custom
  High: Low: Average:
Temperature: 46 °F 38.3 °F 42.3 °F
Dew Point: 40.5 °F 32.4 °F 35.4 °F
Humidity: 91% 61% 77%
Wind Speed: 21mph 2mph 7.9mph
Wind Gust: 27mph - -
Wind- - West
Pressure: 30 in 29.6 in -
Precipitation: 0.07 in    
Historical Graphs
 
 
Tabular Data for February 11, 2020
Time Temperature Dew Point Pressure Wind Wind Speed Wind Gust Humidity Rainfall Rate (Hourly) solar
00:02 44.4 °F 40.5 °F 29.6 in West 11 mph 12 mph 86% 0 in 0 W/m2
00:07 44.4 °F 40.3 °F 29.6 in WSW 6 mph 12 mph 85% 0 in 0 W/m2
00:12 44.4 °F 39.9 °F 29.6 in WNW 8.1 mph 15 mph 84% 0 in 0 W/m2
00:17 44.4 °F 39.9 °F 29.7 in West 6.9 mph 11 mph 84% 0 in 0 W/m2
00:22 44.4 °F 39.9 °F 29.7 in NW 6.9 mph 11 mph 84% 0 in 0 W/m2
00:27 44.4 °F 39.9 °F 29.7 in SW 8.9 mph 12 mph 84% 0 in 0 W/m2
00:32 44.2 °F 40.3 °F 29.7 in West 8.1 mph 16 mph 86% 0.01 in 0 W/m2
00:37 43.5 °F 39.9 °F 29.7 in West 16.1 mph 23 mph 87% 0.05 in 0 W/m2
00:42 42.4 °F 39.4 °F 29.7 in West 6 mph 12 mph 89% 0.06 in 0 W/m2
00:47 41.7 °F 39 °F 29.7 in West 8.9 mph 18 mph 90% 0.06 in 0 W/m2
00:52 41.5 °F 39.2 °F 29.7 in WNW 4.9 mph 6 mph 91% 0.06 in 0 W/m2
00:57 41.5 °F 39.2 °F 29.7 in West 13 mph 18 mph 91% 0.06 in 0 W/m2
01:02 41.5 °F 38.8 °F 29.7 in WSW 8.1 mph 15 mph 90% 0.07 in 0 W/m2
01:07 41.5 °F 38.8 °F 29.7 in WSW 11 mph 14 mph 90% 0.07 in 0 W/m2
01:12 41.5 °F 38.8 °F 29.7 in West 2.9 mph 10 mph 90% 0.07 in 0 W/m2
01:17 41.5 °F 38.8 °F 29.7 in WSW 4.9 mph 10 mph 90% 0.07 in 0 W/m2
01:22 41.4 °F 38.7 °F 29.7 in West 8.1 mph 15 mph 90% 0.07 in 0 W/m2
01:27 41.4 °F 38.7 °F 29.7 in WSW 6.9 mph 7 mph 90% 0.07 in 0 W/m2
01:32 41.2 °F 38.5 °F 29.7 in NW 8.1 mph 13 mph 90% 0.06 in 0 W/m2
01:37 41.2 °F 38.5 °F 29.7 in NW 8.1 mph 8 mph 90% 0.02 in 0 W/m2
01:42 41.2 °F 38.5 °F 29.7 in West 2 mph 9 mph 90% 0.01 in 0 W/m2
01:47 41.2 °F 38.5 °F 29.7 in WNW 6.9 mph 8 mph 90% 0.01 in 0 W/m2
01:52 41.2 °F 38.5 °F 29.7 in WNW 10.1 mph 15 mph 90% 0.01 in 0 W/m2
01:57 41.4 °F 38.3 °F 29.7 in WNW 17 mph 17 mph 89% 0.01 in 0 W/m2
02:02 41.5 °F 38.5 °F 29.7 in West 6 mph 13 mph 89% 0 in 0 W/m2
02:07 41.7 °F 38.1 °F 29.7 in West 8.1 mph 17 mph 87% 0 in 0 W/m2
02:12 41.9 °F 37.9 °F 29.7 in WNW 4.9 mph 12 mph 86% 0 in 0 W/m2
02:17 41.9 °F 37.8 °F 29.7 in WNW 13 mph 17 mph 85% 0 in 0 W/m2
02:22 42.1 °F 37.6 °F 29.7 in WSW 6.9 mph 14 mph 84% 0 in 0 W/m2
02:27 41.9 °F 37 °F 29.7 in West 12.1 mph 19 mph 83% 0 in 0 W/m2
02:32 41.9 °F 37 °F 29.7 in West 13 mph 17 mph 83% 0 in 0 W/m2
02:37 41.7 °F 36.9 °F 29.7 in West 8.1 mph 8 mph 83% 0 in 0 W/m2
02:42 41.5 °F 36.7 °F 29.7 in West 8.9 mph 17 mph 83% 0 in 0 W/m2
02:47 41.7 °F 36.7 °F 29.7 in West 8.1 mph 12 mph 82% 0 in 0 W/m2
02:52 41.5 °F 36.1 °F 29.7 in West 8.9 mph 11 mph 81% 0 in 0 W/m2
02:57 41.5 °F 36.1 °F 29.8 in West 6.9 mph 14 mph 81% 0 in 0 W/m2
03:02 41.5 °F 35.8 °F 29.8 in West 6.9 mph 17 mph 80% 0 in 0 W/m2
03:07 41.5 °F 35.8 °F 29.8 in NW 4 mph 14 mph 80% 0 in 0 W/m2
03:12 41.4 °F 35.4 °F 29.8 in WSW 6.9 mph 19 mph 79% 0 in 0 W/m2
03:17 41.4 °F 35.4 °F 29.7 in North 8.1 mph 18 mph 79% 0 in 0 W/m2
03:22 41.5 °F 35.2 °F 29.8 in West 8.9 mph 15 mph 78% 0 in 0 W/m2
03:27 41.4 °F 35.1 °F 29.8 in West 6.9 mph 18 mph 78% 0 in 0 W/m2
03:32 41.4 °F 35.1 °F 29.8 in WNW 4.9 mph 10 mph 78% 0 in 0 W/m2
03:37 41.4 °F 35.1 °F 29.8 in NW 4 mph 17 mph 78% 0 in 0 W/m2
03:42 41.5 °F 35.6 °F 29.8 in WNW 6.9 mph 10 mph 79% 0 in 0 W/m2
03:47 41.5 °F 35.6 °F 29.8 in WSW 4 mph 13 mph 79% 0 in 0 W/m2
03:52 41.5 °F 35.6 °F 29.8 in WNW 2 mph 9 mph 79% 0 in 0 W/m2
03:57 41.5 °F 35.6 °F 29.8 in NW 4.9 mph 12 mph 79% 0 in 0 W/m2
04:02 41.7 °F 35.8 °F 29.8 in WSW 4 mph 10 mph 79% 0 in 0 W/m2
04:08 41.9 °F 35.6 °F 29.8 in WNW 8.9 mph 14 mph 78% 0 in 0 W/m2
04:13 42.1 °F 35.8 °F 29.8 in WSW 8.9 mph 9 mph 78% 0 in 0 W/m2
04:18 42.3 °F 36 °F 29.8 in West 11 mph 11 mph 78% 0 in 0 W/m2
04:23 42.4 °F 35.8 °F 29.8 in SW 12.1 mph 22 mph 77% 0 in 0 W/m2
04:28 42.4 °F 35.1 °F 29.8 in WNW 8.9 mph 19 mph 75% 0 in 0 W/m2
04:33 42.3 °F 33.8 °F 29.8 in WNW 17.9 mph 27 mph 72% 0 in 0 W/m2
04:38 42.1 °F 33.4 °F 29.8 in WSW 4.9 mph 19 mph 71% 0 in 0 W/m2
04:43 41.5 °F 33.8 °F 29.8 in WNW 10.1 mph 27 mph 74% 0 in 0 W/m2
04:48 41.4 °F 35.1 °F 29.8 in NW 6 mph 13 mph 78% 0 in 0 W/m2
04:53 40.8 °F 35.1 °F 29.8 in WNW 8.1 mph 20 mph 80% 0 in 0 W/m2
04:58 40.5 °F 35.4 °F 29.8 in West 6 mph 8 mph 82% 0 in 0 W/m2
05:03 40.1 °F 35.6 °F 29.8 in NW 2.9 mph 11 mph 84% 0 in 0 W/m2
05:08 39.9 °F 35.4 °F 29.8 in WNW 2.9 mph 8 mph 84% 0 in 0 W/m2
05:13 39.7 °F 35.6 °F 29.8 in West 2.9 mph 10 mph 85% 0 in 0 W/m2
05:18 39.7 °F 35.6 °F 29.8 in West 2.9 mph 10 mph 85% 0 in 0 W/m2
05:23 39.7 °F 35.2 °F 29.8 in West 2.9 mph 11 mph 84% 0 in 0 W/m2
05:28 39.7 °F 35.2 °F 29.8 in WNW 6.9 mph 12 mph 84% 0 in 0 W/m2
05:33 39.7 °F 35.2 °F 29.8 in WSW 8.1 mph 10 mph 84% 0 in 0 W/m2
05:38 39.9 °F 35.4 °F 29.8 in NW 4.9 mph 11 mph 84% 0 in 0 W/m2
05:43 39.9 °F 35.4 °F 29.8 in WSW 8.9 mph 13 mph 84% 0 in 0 W/m2
05:48 39.9 °F 35.4 °F 29.8 in WNW 8.1 mph 9 mph 84% 0 in 0 W/m2
05:53 40.1 °F 35.6 °F 29.8 in West 8.9 mph 9 mph 84% 0 in 0 W/m2
05:58 40.3 °F 35.8 °F 29.8 in West 6.9 mph 12 mph 84% 0 in 0 W/m2
06:03 40.5 °F 36 °F 29.8 in WNW 6 mph 10 mph 84% 0 in 0 W/m2
06:08 40.6 °F 36.1 °F 29.8 in West 10.1 mph 19 mph 84% 0 in 0 W/m2
06:13 40.8 °F 35.8 °F 29.8 in WNW 8.9 mph 12 mph 82% 0 in 0 W/m2
06:18 40.8 °F 35.4 °F 29.8 in WSW 8.1 mph 15 mph 81% 0 in 0 W/m2
06:23 40.8 °F 35.4 °F 29.8 in SW 14.1 mph 16 mph 81% 0 in 0 W/m2
06:28 40.6 °F 35.6 °F 29.8 in WNW 6.9 mph 13 mph 82% 0 in 0 W/m2
06:33 40.6 °F 35.6 °F 29.8 in West 10.1 mph 11 mph 82% 0 in 0 W/m2
06:38 40.6 °F 36 °F 29.8 in WNW 11 mph 14 mph 83% 0 in 0 W/m2
06:43 40.6 °F 36 °F 29.8 in NW 2.9 mph 7 mph 83% 0 in 0 W/m2
06:48 40.5 °F 35.8 °F 29.8 in SW 4.9 mph 14 mph 83% 0 in 0 W/m2
06:53 40.5 °F 36 °F 29.8 in WSW 12.1 mph 12 mph 84% 0 in 0 W/m2
06:58 40.5 °F 36 °F 29.8 in WNW 10.1 mph 13 mph 84% 0 in 0 W/m2
07:03 40.6 °F 36.1 °F 29.8 in WSW 6.9 mph 11 mph 84% 0 in 0 W/m2
07:08 40.6 °F 36.1 °F 29.8 in West 6 mph 11 mph 84% 0 in 0 W/m2
07:13 40.6 °F 36.5 °F 29.8 in NW 8.9 mph 11 mph 85% 0 in 0 W/m2
07:18 40.6 °F 36.5 °F 29.8 in West 8.1 mph 10 mph 85% 0 in 0 W/m2
07:23 40.6 °F 36.5 °F 29.8 in West 11 mph 12 mph 85% 0 in 0 W/m2
07:29 40.8 °F 36.3 °F 29.8 in West 10.1 mph 13 mph 84% 0 in 0 W/m2
07:34 40.8 °F 36.3 °F 29.8 in West 6 mph 8 mph 84% 0 in 0 W/m2
07:39 40.8 °F 36.3 °F 29.8 in West 13 mph 13 mph 84% 0 in 0 W/m2
07:44 41 °F 36.3 °F 29.8 in WNW 4.9 mph 13 mph 83% 0 in 0 W/m2
07:49 41 °F 36.3 °F 29.8 in West 11 mph 20 mph 83% 0 in 0 W/m2
07:54 41.2 °F 36.5 °F 29.8 in West 8.9 mph 15 mph 83% 0 in 0 W/m2
07:59 41.2 °F 36.5 °F 29.8 in WNW 10.1 mph 14 mph 83% 0 in 5 W/m2
08:04 41 °F 36.3 °F 29.8 in West 8.1 mph 11 mph 83% 0 in 9 W/m2
08:09 41 °F 36 °F 29.8 in WNW 6.9 mph 15 mph 82% 0 in 14 W/m2
08:14 41 °F 36 °F 29.8 in WSW 11 mph 16 mph 82% 0 in 25 W/m2
08:19 41.2 °F 36.1 °F 29.8 in WNW 8.1 mph 11 mph 82% 0 in 42 W/m2
08:24 41.2 °F 36.1 °F 29.8 in West 8.9 mph 9 mph 82% 0 in 23 W/m2
08:29 41.2 °F 36.5 °F 29.8 in WSW 2.9 mph 13 mph 83% 0 in 21 W/m2
08:34 41 °F 36.3 °F 29.8 in WSW 2 mph 7 mph 83% 0 in 25 W/m2
08:39 41 °F 36.3 °F 29.8 in West 4 mph 12 mph 83% 0 in 28 W/m2
08:44 41 °F 36.3 °F 29.8 in WSW 4 mph 11 mph 83% 0 in 32 W/m2
08:49 41 °F 36.3 °F 29.8 in West 8.9 mph 10 mph 83% 0 in 37 W/m2
08:54 41.2 °F 36.5 °F 29.8 in West 8.9 mph 14 mph 83% 0 in 46 W/m2
08:59 41.2 °F 36.1 °F 29.8 in WNW 6 mph 12 mph 82% 0 in 49 W/m2
09:04 41.4 °F 36.3 °F 29.8 in West 2 mph 8 mph 82% 0 in 47 W/m2
09:09 41.4 °F 36.3 °F 29.8 in WSW 4 mph 9 mph 82% 0 in 42 W/m2
09:14 41.4 °F 36.3 °F 29.8 in NW 4.9 mph 9 mph 82% 0 in 32 W/m2
09:19 41.5 °F 36.7 °F 29.8 in WSW 17 mph 17 mph 83% 0 in 83 W/m2
09:24 41.5 °F 36.7 °F 29.8 in West 2.9 mph 9 mph 83% 0 in 60 W/m2
09:29 41.7 °F 36.9 °F 29.8 in NW 2.9 mph 8 mph 83% 0 in 79 W/m2
09:34 41.7 °F 36.9 °F 29.8 in WSW 12.1 mph 13 mph 83% 0 in 125 W/m2
09:39 42.1 °F 37.6 °F 29.8 in West 2 mph 13 mph 84% 0 in 132 W/m2
09:44 42.3 °F 37.4 °F 29.8 in WNW 6.9 mph 10 mph 83% 0 in 185 W/m2
09:49 42.4 °F 37.6 °F 29.8 in NW 8.9 mph 13 mph 83% 0 in 118 W/m2
09:54 42.4 °F 37.6 °F 29.8 in West 10.1 mph 10 mph 83% 0 in 77 W/m2
09:59 42.4 °F 37.4 °F 29.8 in WNW 10.1 mph 16 mph 82% 0 in 104 W/m2
10:05 42.4 °F 37 °F 29.8 in West 8.1 mph 10 mph 81% 0 in 77 W/m2
10:10 42.4 °F 36.7 °F 29.8 in WNW 2.9 mph 17 mph 80% 0 in 107 W/m2
10:15 42.4 °F 36.7 °F 29.8 in West 6.9 mph 14 mph 80% 0 in 151 W/m2
10:20 42.6 °F 36.5 °F 29.8 in SW 4.9 mph 9 mph 79% 0 in 206 W/m2
10:25 42.8 °F 36.7 °F 29.9 in West 6 mph 12 mph 79% 0 in 134 W/m2
10:30 43 °F 36.9 °F 29.8 in NNW 6 mph 10 mph 79% 0 in 114 W/m2
10:35 43 °F 36.3 °F 29.9 in West 12.1 mph 13 mph 77% 0 in 158 W/m2
10:40 43 °F 36.3 °F 29.9 in West 2.9 mph 9 mph 77% 0 in 193 W/m2
10:45 43.2 °F 36.1 °F 29.9 in SW 6 mph 13 mph 76% 0 in 137 W/m2
10:50 43.2 °F 35.8 °F 29.9 in WNW 12.1 mph 19 mph 75% 0 in 104 W/m2
10:55 43.2 °F 35.8 °F 29.9 in NW 10.1 mph 15 mph 75% 0 in 144 W/m2
11:00 43.3 °F 36 °F 29.9 in West 6 mph 9 mph 75% 0 in 137 W/m2
11:05 43.3 °F 36 °F 29.9 in West 6.9 mph 8 mph 75% 0 in 111 W/m2
11:10 43.3 °F 36 °F 29.9 in WSW 10.1 mph 17 mph 75% 0 in 176 W/m2
11:15 43.3 °F 35.6 °F 29.9 in West 10.1 mph 13 mph 74% 0 in 148 W/m2
11:20 43.3 °F 36 °F 29.9 in West 11 mph 15 mph 75% 0 in 167 W/m2
11:25 43.3 °F 35.6 °F 29.9 in WNW 6.9 mph 11 mph 74% 0 in 114 W/m2
11:30 43.3 °F 35.6 °F 29.9 in West 10.1 mph 11 mph 74% 0 in 98 W/m2
11:35 43.3 °F 35.6 °F 29.9 in West 4 mph 18 mph 74% 0 in 172 W/m2
11:41 43.5 °F 35.8 °F 29.9 in WNW 8.9 mph 14 mph 74% 0 in 132 W/m2
11:46 43.7 °F 36 °F 29.9 in WNW 6.9 mph 13 mph 74% 0 in 178 W/m2
11:51 43.7 °F 36 °F 29.9 in WNW 8.1 mph 9 mph 74% 0 in 192 W/m2
11:56 43.9 °F 36.1 °F 29.9 in West 10.1 mph 14 mph 74% 0 in 83 W/m2
12:01 43.9 °F 36.1 °F 29.9 in WSW 10.1 mph 11 mph 74% 0 in 151 W/m2
12:06 44.1 °F 36 °F 29.9 in WNW 8.1 mph 17 mph 73% 0 in 98 W/m2
12:11 44.1 °F 36 °F 29.9 in NW 6 mph 18 mph 73% 0 in 155 W/m2
12:16 44.1 °F 36 °F 29.9 in West 8.1 mph 10 mph 73% 0 in 162 W/m2
12:21 44.1 °F 35.6 °F 29.9 in WNW 8.1 mph 17 mph 72% 0 in 102 W/m2
12:26 44.2 °F 35.8 °F 29.9 in WNW 6.9 mph 16 mph 72% 0 in 211 W/m2
12:31 44.2 °F 35.8 °F 29.9 in West 6.9 mph 13 mph 72% 0 in 279 W/m2
12:36 44.2 °F 35.4 °F 29.9 in West 8.1 mph 17 mph 71% 0 in 200 W/m2
12:41 44.2 °F 35.8 °F 29.9 in NW 2.9 mph 7 mph 72% 0 in 193 W/m2
12:46 44.2 °F 35.8 °F 29.9 in SW 10.1 mph 20 mph 72% 0 in 127 W/m2
12:51 44.2 °F 35.8 °F 29.9 in WSW 8.9 mph 11 mph 72% 0 in 142 W/m2
12:56 44.2 °F 35.1 °F 29.9 in WSW 12.1 mph 12 mph 70% 0 in 118 W/m2
13:01 44.2 °F 35.4 °F 29.9 in West 4 mph 10 mph 71% 0 in 202 W/m2
13:06 44.4 °F 35.2 °F 29.9 in West 13 mph 14 mph 70% 0 in 162 W/m2
13:11 44.4 °F 34.9 °F 29.9 in West 13 mph 13 mph 69% 0 in 123 W/m2
13:16 44.4 °F 34.9 °F 29.9 in West 6.9 mph 13 mph 69% 0 in 183 W/m2
13:21 44.6 °F 35.1 °F 29.9 in NW 4.9 mph 14 mph 69% 0 in 146 W/m2
13:26 44.8 °F 35.2 °F 29.9 in West 6 mph 19 mph 69% 0 in 134 W/m2
13:31 44.6 °F 35.1 °F 29.9 in WSW 8.1 mph 12 mph 69% 0 in 125 W/m2
13:36 44.8 °F 35.2 °F 29.9 in WNW 17.9 mph 18 mph 69% 0 in 188 W/m2
13:41 44.8 °F 34.9 °F 29.9 in West 2.9 mph 13 mph 68% 0 in 105 W/m2
13:46 45 °F 35.1 °F 29.9 in WNW 4 mph 14 mph 68% 0 in 134 W/m2
13:51 45 °F 35.4 °F 29.9 in West 8.1 mph 13 mph 69% 0 in 62 W/m2
13:56 45 °F 35.1 °F 29.9 in WNW 6.9 mph 10 mph 68% 0 in 158 W/m2
14:01 45 °F 34.3 °F 29.9 in NW 2.9 mph 16 mph 66% 0 in 77 W/m2
14:06 45 °F 34 °F 29.9 in NW 10.1 mph 18 mph 65% 0 in 97 W/m2
14:12 45 °F 34.3 °F 29.9 in WSW 11 mph 16 mph 66% 0 in 127 W/m2
14:17 45.1 °F 34.9 °F 29.9 in WSW 6.9 mph 12 mph 67% 0 in 151 W/m2
14:22 45.1 °F 35.2 °F 29.9 in WSW 12.1 mph 12 mph 68% 0 in 251 W/m2
14:27 45.7 °F 35.4 °F 29.9 in NW 4 mph 5 mph 67% 0 in 156 W/m2
14:32 45.9 °F 34.3 °F 29.9 in WSW 6.9 mph 16 mph 64% 0 in 155 W/m2
14:37 46 °F 33.8 °F 29.9 in West 11 mph 21 mph 62% 0 in 109 W/m2
14:42 46 °F 33.3 °F 29.9 in West 11 mph 22 mph 61% 0 in 98 W/m2
14:47 45.9 °F 34 °F 29.9 in WNW 8.1 mph 11 mph 63% 0 in 93 W/m2
14:52 45.7 °F 33.1 °F 29.9 in WNW 19 mph 22 mph 61% 0 in 104 W/m2
14:57 45.5 °F 32.9 °F 29.9 in WNW 16.1 mph 16 mph 61% 0 in 76 W/m2
15:02 45.3 °F 32.7 °F 29.9 in West 11 mph 21 mph 61% 0 in 49 W/m2
15:07 45.1 °F 33.3 °F 29.9 in West 10.1 mph 13 mph 63% 0 in 72 W/m2
15:12 45.3 °F 33.4 °F 29.9 in WNW 17 mph 17 mph 63% 0 in 160 W/m2
15:17 45.7 °F 33.8 °F 29.9 in WNW 14.1 mph 20 mph 63% 0 in 142 W/m2
15:22 45.7 °F 33.4 °F 29.9 in WSW 8.1 mph 18 mph 62% 0 in 118 W/m2
15:27 45.7 °F 33.4 °F 29.9 in WSW 11 mph 12 mph 62% 0 in 100 W/m2
15:32 45.3 °F 33.4 °F 29.9 in WSW 8.9 mph 10 mph 63% 0 in 79 W/m2
15:37 45.3 °F 33.8 °F 29.9 in SW 11 mph 15 mph 64% 0 in 100 W/m2
15:42 45.3 °F 33.8 °F 29.9 in West 4 mph 11 mph 64% 0 in 76 W/m2
15:47 45.5 °F 33.6 °F 29.9 in NW 11 mph 14 mph 63% 0 in 102 W/m2
15:52 45.3 °F 33.1 °F 29.9 in West 6.9 mph 10 mph 62% 0 in 63 W/m2
15:57 45.1 °F 33.3 °F 29.9 in WNW 11 mph 14 mph 63% 0 in 65 W/m2
16:02 45.1 °F 33.6 °F 29.9 in West 4 mph 13 mph 64% 0 in 63 W/m2
16:07 45 °F 33.4 °F 29.9 in WNW 8.9 mph 12 mph 64% 0 in 58 W/m2
16:12 45 °F 34 °F 29.9 in WNW 8.1 mph 14 mph 65% 0 in 90 W/m2
16:17 45 °F 34.3 °F 29.9 in SW 2.9 mph 10 mph 66% 0 in 76 W/m2
16:22 45 °F 34.3 °F 29.9 in WSW 8.1 mph 14 mph 66% 0 in 60 W/m2
16:27 45 °F 34.3 °F 29.9 in WNW 6.9 mph 11 mph 66% 0 in 86 W/m2
16:32 45.1 °F 34.2 °F 29.9 in WNW 2.9 mph 8 mph 65% 0 in 97 W/m2
16:37 45.1 °F 34.2 °F 29.9 in West 8.1 mph 12 mph 65% 0 in 70 W/m2
16:42 45.1 °F 33.6 °F 29.9 in West 6.9 mph 8 mph 64% 0 in 33 W/m2
16:47 45 °F 33.4 °F 29.9 in West 6.9 mph 11 mph 64% 0 in 9 W/m2
16:52 45 °F 34 °F 29.9 in West 4 mph 9 mph 65% 0 in 9 W/m2
16:57 44.8 °F 33.8 °F 29.9 in SSE 2.9 mph 14 mph 65% 0 in 32 W/m2
17:02 44.6 °F 33.3 °F 29.9 in WNW 12.1 mph 17 mph 64% 0 in 18 W/m2
17:07 44.4 °F 32.5 °F 29.9 in WSW 6.9 mph 14 mph 63% 0 in 21 W/m2
17:12 44.6 °F 32.4 °F 29.9 in West 2.9 mph 17 mph 62% 0 in 11 W/m2
17:17 44.6 °F 32.7 °F 29.9 in WSW 19 mph 20 mph 63% 0 in 9 W/m2
17:22 44.2 °F 33.6 °F 29.9 in WSW 21 mph 26 mph 66% 0 in 12 W/m2
17:27 44.1 °F 33.4 °F 29.9 in West 10.1 mph 18 mph 66% 0 in 14 W/m2
17:32 43.5 °F 33.6 °F 29.9 in West 10.1 mph 26 mph 68% 0 in 7 W/m2
17:37 43.3 °F 33.4 °F 29.9 in SSW 8.9 mph 19 mph 68% 0 in 5 W/m2
17:42 43.3 °F 33.4 °F 29.9 in WNW 11 mph 15 mph 68% 0 in 5 W/m2
17:47 43.3 °F 33.4 °F 29.9 in NW 16.1 mph 19 mph 68% 0 in 0 W/m2
17:52 43.2 °F 33.6 °F 29.9 in WNW 4.9 mph 18 mph 69% 0 in 0 W/m2
17:57 43.2 °F 33.6 °F 29.9 in West 4 mph 15 mph 69% 0 in 0 W/m2
18:02 43.2 °F 34 °F 29.9 in West 6 mph 8 mph 70% 0 in 0 W/m2
18:07 43.2 °F 34 °F 29.9 in NW 4 mph 9 mph 70% 0 in 0 W/m2
18:12 43 °F 34.2 °F 29.9 in WNW 4.9 mph 15 mph 71% 0 in 0 W/m2
18:17 42.6 °F 34.2 °F 29.9 in NW 4 mph 11 mph 72% 0 in 0 W/m2
18:23 42.4 °F 34.3 °F 29.9 in NNW 8.1 mph 17 mph 73% 0 in 0 W/m2
18:28 42.3 °F 34.2 °F 29.9 in West 10.1 mph 10 mph 73% 0 in 0 W/m2
18:33 42.1 °F 34.3 °F 29.9 in West 6 mph 13 mph 74% 0 in 0 W/m2
18:38 42.1 °F 34.3 °F 29.9 in West 8.1 mph 13 mph 74% 0 in 0 W/m2
18:43 41.9 °F 34.2 °F 29.9 in WNW 4 mph 15 mph 74% 0 in 0 W/m2
18:48 41.9 °F 34.2 °F 29.9 in WNW 4.9 mph 16 mph 74% 0 in 0 W/m2
18:53 42.1 °F 34.3 °F 29.9 in West 6 mph 11 mph 74% 0 in 0 W/m2
18:58 42.1 °F 34.3 °F 29.9 in West 12.1 mph 12 mph 74% 0 in 0 W/m2
19:03 42.1 °F 34.3 °F 29.9 in SW 13 mph 20 mph 74% 0 in 0 W/m2
19:08 41.9 °F 34.2 °F 29.9 in West 6 mph 13 mph 74% 0 in 0 W/m2
19:13 41.9 °F 34.5 °F 29.9 in WNW 2 mph 10 mph 75% 0 in 0 W/m2
19:18 41.9 °F 34.5 °F 29.9 in South 2 mph 6 mph 75% 0 in 0 W/m2
19:23 41.7 °F 34.3 °F 29.9 in WNW 8.9 mph 12 mph 75% 0 in 0 W/m2
19:28 41.7 °F 34.7 °F 29.9 in NNW 13 mph 18 mph 76% 0 in 0 W/m2
19:33 41.5 °F 34.5 °F 29.9 in WSW 8.1 mph 16 mph 76% 0 in 0 W/m2
19:38 41.5 °F 34.9 °F 29.9 in SW 6.9 mph 16 mph 77% 0 in 0 W/m2
19:43 41.4 °F 34.7 °F 30 in West 12.1 mph 14 mph 77% 0 in 0 W/m2
19:48 41.2 °F 34.5 °F 30 in West 17 mph 17 mph 77% 0 in 0 W/m2
19:53 41.2 °F 34.9 °F 30 in WNW 6.9 mph 19 mph 78% 0 in 0 W/m2
19:58 40.8 °F 34.5 °F 30 in West 14.1 mph 14 mph 78% 0 in 0 W/m2
20:03 40.8 °F 34.9 °F 30 in WNW 2 mph 17 mph 79% 0 in 0 W/m2
20:08 40.6 °F 34.7 °F 30 in WNW 16.1 mph 20 mph 79% 0 in 0 W/m2
20:13 40.5 °F 34.5 °F 30 in WNW 8.9 mph 13 mph 79% 0 in 0 W/m2
20:18 40.5 °F 34.5 °F 30 in WNW 6.9 mph 14 mph 79% 0 in 0 W/m2
20:23 40.3 °F 34.5 °F 30 in West 8.1 mph 12 mph 80% 0 in 0 W/m2
20:28 40.3 °F 34.5 °F 30 in West 6.9 mph 13 mph 80% 0 in 0 W/m2
20:34 40.3 °F 34.5 °F 30 in WNW 15 mph 18 mph 80% 0 in 0 W/m2
20:39 40.3 °F 34.5 °F 30 in NW 8.9 mph 16 mph 80% 0 in 0 W/m2
20:44 40.3 °F 34.5 °F 30 in WSW 8.1 mph 18 mph 80% 0 in 0 W/m2
20:49 40.3 °F 34.5 °F 30 in WSW 8.9 mph 13 mph 80% 0 in 0 W/m2
20:54 40.3 °F 34.5 °F 30 in NW 11 mph 14 mph 80% 0 in 0 W/m2
20:59 40.3 °F 34.5 °F 30 in NNW 8.9 mph 15 mph 80% 0 in 0 W/m2
21:04 40.3 °F 34.5 °F 30 in West 11 mph 11 mph 80% 0 in 0 W/m2
21:09 40.3 °F 34.5 °F 30 in West 2.9 mph 10 mph 80% 0 in 0 W/m2
21:14 40.3 °F 34.5 °F 30 in West 8.9 mph 17 mph 80% 0 in 0 W/m2
21:19 40.5 °F 34.7 °F 30 in NW 6 mph 10 mph 80% 0 in 0 W/m2
21:24 40.5 °F 34.7 °F 30 in WNW 10.1 mph 17 mph 80% 0 in 0 W/m2
21:29 40.5 °F 34.7 °F 30 in WSW 8.9 mph 9 mph 80% 0 in 0 W/m2
21:34 40.5 °F 34.7 °F 30 in West 11 mph 17 mph 80% 0 in 0 W/m2
21:39 40.5 °F 34.7 °F 30 in West 8.9 mph 10 mph 80% 0 in 0 W/m2
21:44 40.5 °F 34.7 °F 30 in WNW 8.9 mph 9 mph 80% 0 in 0 W/m2
21:49 40.3 °F 34.5 °F 30 in West 8.9 mph 12 mph 80% 0 in 0 W/m2
21:54 40.3 °F 34.5 °F 30 in West 4 mph 13 mph 80% 0 in 0 W/m2
21:59 40.3 °F 34.9 °F 30 in West 6.9 mph 12 mph 81% 0 in 0 W/m2
22:04 40.1 °F 34.7 °F 30 in WSW 2.9 mph 13 mph 81% 0 in 0 W/m2
22:09 40.1 °F 34.7 °F 30 in WNW 12.1 mph 17 mph 81% 0 in 0 W/m2
22:14 40.3 °F 34.9 °F 30 in WNW 10.1 mph 18 mph 81% 0 in 0 W/m2
22:19 40.3 °F 34.9 °F 30 in West 2.9 mph 13 mph 81% 0 in 0 W/m2
22:24 40.3 °F 34.9 °F 30 in West 13 mph 14 mph 81% 0 in 0 W/m2
22:29 40.5 °F 35.1 °F 30 in WNW 8.9 mph 10 mph 81% 0 in 0 W/m2
22:34 40.5 °F 35.1 °F 30 in WSW 14 mph 14 mph 81% 0 in 0 W/m2
22:39 40.3 °F 34.9 °F 30 in WNW 2.9 mph 9 mph 81% 0 in 0 W/m2
22:44 40.3 °F 34.9 °F 30 in WSW 8.9 mph 12 mph 81% 0 in 0 W/m2
22:49 40.3 °F 34.9 °F 30 in West 4 mph 10 mph 81% 0 in 0 W/m2
22:54 40.3 °F 34.9 °F 30 in WNW 6.9 mph 12 mph 81% 0 in 0 W/m2
22:59 40.1 °F 34.7 °F 30 in WNW 4.9 mph 10 mph 81% 0 in 0 W/m2
23:04 39.9 °F 34.5 °F 30 in West 6 mph 11 mph 81% 0 in 0 W/m2
23:09 39.7 °F 34.3 °F 30 in SW 4.9 mph 8 mph 81% 0 in 0 W/m2
23:14 39.6 °F 34.2 °F 30 in WNW 4.9 mph 10 mph 81% 0 in 0 W/m2
23:19 39.2 °F 34.2 °F 30 in WNW 2.9 mph 13 mph 82% 0 in 0 W/m2
23:24 39 °F 34 °F 30 in NW 2.9 mph 14 mph 82% 0 in 0 W/m2
23:29 38.8 °F 34.2 °F 30 in WNW 2.9 mph 10 mph 83% 0 in 0 W/m2
23:34 38.7 °F 34 °F 30 in North 2.9 mph 11 mph 83% 0 in 0 W/m2
23:39 38.7 °F 34 °F 30 in West 2 mph 6 mph 83% 0 in 0 W/m2
23:44 38.5 °F 33.8 °F 30 in WSW 4 mph 11 mph 83% 0 in 0 W/m2
23:49 38.5 °F 34.2 °F 30 in SW 2 mph 5 mph 84% 0 in 0 W/m2
23:54 38.3 °F 34 °F 30 in NW 4 mph 10 mph 84% 0 in 0 W/m2
23:59 38.3 °F 34 °F 30 in South 2.9 mph 4 mph 84% 0 in 0 W/m2
Juneau County Weather
Compliments of Weather Underground - 4 mb